createdAt,value
2023-10-29T00:01:54.989Z,99208.14
2023-10-29T00:05:58.251Z,99211.20
2023-10-29T00:10:01.640Z,99216.67
2023-10-29T00:14:05.230Z,99217.35
2023-10-29T00:18:14.010Z,99221.19
2023-10-29T00:22:18.104Z,99225.88
2023-10-29T00:26:21.888Z,99226.63
2023-10-29T00:30:26.081Z,99227.25
2023-10-29T00:34:29.349Z,99226.91
2023-10-29T00:38:32.708Z,99218.42
2023-10-29T00:42:36.016Z,99218.70
2023-10-29T00:46:42.003Z,99224.50
2023-10-29T00:50:45.444Z,99223.83
2023-10-29T00:54:50.355Z,99226.35
2023-10-29T00:58:54.359Z,99223.74
2023-10-29T01:02:57.858Z,99221.92
2023-10-29T01:07:01.316Z,99224.84
2023-10-29T01:11:07.356Z,99214.88
2023-10-29T01:15:11.383Z,99215.39
2023-10-29T01:19:14.672Z,99213.94
2023-10-29T01:23:19.883Z,99212.96
2023-10-29T01:27:23.245Z,99215.27
2023-10-29T01:31:26.533Z,99219.88
2023-10-29T01:35:29.818Z,99226.25
2023-10-29T01:39:33.161Z,99224.42
2023-10-29T01:43:36.612Z,99228.38
2023-10-29T01:47:39.935Z,99239.30
2023-10-29T01:51:43.340Z,99244.60
2023-10-29T01:55:46.687Z,99240.81
2023-10-29T01:59:50.113Z,99241.44
2023-10-29T02:03:53.522Z,99247.91
2023-10-29T02:07:56.911Z,99243.55
2023-10-29T02:12:00.205Z,99249.95
2023-10-29T02:16:04.945Z,99254.94
2023-10-29T02:20:10.161Z,99256.23
2023-10-29T02:24:13.460Z,99262.71
2023-10-29T02:28:16.727Z,99269.59
2023-10-29T02:32:20.416Z,99272.63
2023-10-29T02:36:23.672Z,99279.71
2023-10-29T02:40:26.885Z,99284.20
2023-10-29T02:44:30.595Z,99285.30
2023-10-29T02:48:34.149Z,99286.48
2023-10-29T02:52:37.480Z,99290.08
2023-10-29T02:56:42.081Z,99290.73
2023-10-29T03:00:45.567Z,99296.84
2023-10-29T03:04:49.192Z,99297.91
2023-10-29T03:08:52.679Z,99294.22
2023-10-29T03:12:55.973Z,99291.91
2023-10-29T03:16:59.237Z,99290.30
2023-10-29T03:21:02.575Z,99299.94
2023-10-29T03:25:06.069Z,99308.02
2023-10-29T03:29:09.392Z,99305.10
2023-10-29T03:33:12.692Z,99315.90
2023-10-29T03:37:16.025Z,99312.86
2023-10-29T03:41:23.559Z,99304.70
2023-10-29T03:45:26.860Z,99305.95
2023-10-29T03:49:30.190Z,99306.61
2023-10-29T03:53:33.476Z,99298.77
2023-10-29T03:57:36.981Z,99292.58
2023-10-29T04:01:40.259Z,99287.54
2023-10-29T04:05:44.240Z,99291.52
2023-10-29T04:09:47.515Z,99292.19
2023-10-29T04:13:50.843Z,99295.72
2023-10-29T04:17:54.228Z,99295.50
2023-10-29T04:21:57.626Z,99286.52
2023-10-29T04:26:00.884Z,99287.48
2023-10-29T04:30:04.421Z,99292.22
2023-10-29T04:34:07.759Z,99284.16
2023-10-29T04:38:11.052Z,99280.08
2023-10-29T04:42:14.293Z,99281.82
2023-10-29T04:46:17.562Z,99277.38
2023-10-29T04:50:21.007Z,99278.86
2023-10-29T04:54:24.809Z,99285.95
2023-10-29T04:58:28.193Z,99296.68
2023-10-29T05:02:31.715Z,99301.35
2023-10-29T05:06:34.992Z,99301.96
2023-10-29T05:10:38.367Z,99302.00
2023-10-29T05:14:41.716Z,99306.91
2023-10-29T05:18:45.085Z,99302.06
2023-10-29T05:22:48.336Z,99301.46
2023-10-29T05:26:51.785Z,99308.60
2023-10-29T05:30:55.220Z,99312.07
2023-10-29T05:34:58.533Z,99320.70
2023-10-29T05:39:02.889Z,99320.09
2023-10-29T05:43:06.379Z,99325.40
2023-10-29T05:47:09.755Z,99327.05
2023-10-29T05:51:18.873Z,99331.73
2023-10-29T05:55:23.936Z,99335.06
2023-10-29T05:59:29.587Z,99342.54
2023-10-29T06:03:35.020Z,99349.98
2023-10-29T06:07:38.584Z,99360.93
2023-10-29T06:11:43.142Z,99366.10
2023-10-29T06:15:46.526Z,99369.44
2023-10-29T06:19:49.954Z,99379.70
2023-10-29T06:23:53.402Z,99389.84
2023-10-29T06:27:56.765Z,99401.77
2023-10-29T06:32:00.103Z,99406.52
2023-10-29T06:36:03.599Z,99415.85
2023-10-29T06:40:07.899Z,99412.39
2023-10-29T06:44:11.138Z,99411.72
2023-10-29T06:48:14.912Z,99410.27
2023-10-29T06:52:18.297Z,99419.91
2023-10-29T06:56:21.572Z,99418.75
2023-10-29T07:00:24.878Z,99417.09
2023-10-29T07:04:28.371Z,99416.41
2023-10-29T07:08:31.835Z,99411.08
2023-10-29T07:12:35.291Z,99398.95
2023-10-29T07:16:45.448Z,99393.84
2023-10-29T07:20:48.823Z,99392.05
2023-10-29T07:24:52.461Z,99393.05
2023-10-29T07:28:55.673Z,99393.63
2023-10-29T07:32:59.120Z,99392.19
2023-10-29T07:37:02.558Z,99389.10
2023-10-29T07:41:06.041Z,99389.56
2023-10-29T07:45:09.628Z,99390.89
2023-10-29T07:49:12.939Z,99390.77
2023-10-29T07:53:16.179Z,99389.21
2023-10-29T07:57:19.453Z,99382.69
2023-10-29T08:01:22.851Z,99379.43
2023-10-29T08:05:26.152Z,99376.31
2023-10-29T08:09:29.435Z,99370.60
2023-10-29T08:13:32.811Z,99362.86
2023-10-29T08:17:36.300Z,99359.74
2023-10-29T08:21:39.605Z,99343.68
2023-10-29T08:25:42.828Z,99342.09
2023-10-29T08:29:46.593Z,99355.13
2023-10-29T08:33:50.569Z,99360.44
2023-10-29T08:37:54.593Z,99362.39
2023-10-29T08:41:58.713Z,99359.82
2023-10-29T08:46:03.598Z,99360.98
2023-10-29T08:50:09.849Z,99369.46
2023-10-29T08:54:13.599Z,99370.89
2023-10-29T08:58:17.054Z,99381.00
2023-10-29T09:02:20.450Z,99379.41
2023-10-29T09:06:23.887Z,99387.82
2023-10-29T09:10:28.350Z,99403.55
2023-10-29T09:14:31.624Z,99401.01
2023-10-29T09:18:34.942Z,99406.41
2023-10-29T09:22:38.187Z,99408.56
2023-10-29T09:26:42.502Z,99405.17
2023-10-29T09:30:46.309Z,99406.27
2023-10-29T09:34:49.980Z,99397.92
2023-10-29T09:38:53.462Z,99389.11
2023-10-29T09:42:57.349Z,99388.49
2023-10-29T09:47:12.115Z,99380.05
2023-10-29T09:51:15.905Z,99379.58
2023-10-29T09:55:21.370Z,99387.25
2023-10-29T09:59:25.192Z,99380.98
2023-10-29T10:03:28.834Z,99376.12
2023-10-29T10:07:32.898Z,99371.52
2023-10-29T10:11:37.423Z,99371.11
2023-10-29T10:15:40.874Z,99368.90
2023-10-29T10:19:44.213Z,99358.61
2023-10-29T10:23:58.002Z,99353.45
2023-10-29T10:28:03.668Z,99346.09
2023-10-29T10:32:08.200Z,99345.59
2023-10-29T10:36:11.687Z,99340.83
2023-10-29T10:40:27.598Z,99338.06
2023-10-29T10:44:32.101Z,99334.85
2023-10-29T10:48:37.630Z,99332.50
2023-10-29T10:52:41.223Z,99328.85
2023-10-29T10:56:45.242Z,99326.63
2023-10-29T11:00:50.706Z,99316.77
2023-10-29T11:04:55.772Z,99315.81
2023-10-29T11:09:03.167Z,99319.70
2023-10-29T11:13:21.577Z,99317.16
2023-10-29T11:17:57.784Z,99319.29
2023-10-29T11:22:14.446Z,99316.58
2023-10-29T11:26:22.762Z,99314.23
2023-10-29T11:30:29.949Z,99306.83
2023-10-29T11:34:34.762Z,99301.98
2023-10-29T11:38:40.608Z,99302.44
2023-10-29T11:42:45.906Z,99304.95
2023-10-29T11:47:04.850Z,99294.27
2023-10-29T11:51:10.273Z,99287.14
2023-10-29T11:55:13.776Z,99283.46
2023-10-29T12:04:54.027Z,99258.98
2023-10-29T12:08:57.852Z,99244.92
2023-10-29T12:13:01.135Z,99234.09
2023-10-29T12:17:05.271Z,99230.70
2023-10-29T12:21:11.087Z,99232.23
2023-10-29T12:25:16.058Z,99230.52
2023-10-29T12:29:19.364Z,99233.63
2023-10-29T12:33:30.964Z,99229.91
2023-10-29T12:37:34.399Z,99223.26
2023-10-29T12:41:37.606Z,99206.84
2023-10-29T12:45:40.902Z,99206.55
2023-10-29T12:49:44.278Z,99213.14
2023-10-29T12:53:47.605Z,99205.13
2023-10-29T12:57:54.024Z,99207.46
2023-10-29T13:02:01.871Z,99206.09
2023-10-29T13:06:05.438Z,99203.03
2023-10-29T13:10:09.088Z,99202.73
2023-10-29T13:14:12.570Z,99197.20
2023-10-29T13:18:16.058Z,99197.42
2023-10-29T13:22:19.359Z,99203.74
2023-10-29T13:26:23.344Z,99203.66
2023-10-29T13:30:27.102Z,99192.11
2023-10-29T13:34:30.421Z,99201.10
2023-10-29T13:38:33.764Z,99214.42
2023-10-29T13:42:37.137Z,99217.69
2023-10-29T13:46:40.435Z,99221.25
2023-10-29T13:50:44.137Z,99222.05
2023-10-29T13:54:47.601Z,99217.09
2023-10-29T13:58:51.309Z,99214.73
2023-10-29T14:02:58.003Z,99220.34
2023-10-29T14:07:02.430Z,99216.83
2023-10-29T14:11:06.810Z,99213.41
2023-10-29T14:15:10.873Z,99205.95
2023-10-29T14:19:14.165Z,99204.59
2023-10-29T14:23:17.535Z,99200.51
2023-10-29T14:27:20.921Z,99198.05
2023-10-29T14:31:24.456Z,99198.33
2023-10-29T14:35:27.725Z,99206.90
2023-10-29T14:39:31.019Z,99206.52
2023-10-29T14:43:34.278Z,99208.82
2023-10-29T14:47:37.739Z,99203.91
2023-10-29T14:51:41.198Z,99208.52
2023-10-29T14:55:48.839Z,99204.77
2023-10-29T14:59:52.252Z,99200.98
2023-10-29T15:03:56.568Z,99196.06
2023-10-29T15:07:59.935Z,99189.67
2023-10-29T15:12:04.960Z,99183.52
2023-10-29T15:16:08.360Z,99173.92
2023-10-29T15:20:12.798Z,99178.50
2023-10-29T15:24:16.278Z,99185.00
2023-10-29T15:28:19.584Z,99184.64
2023-10-29T15:32:23.202Z,99183.73
2023-10-29T15:36:26.526Z,99185.82
2023-10-29T15:40:29.816Z,99195.66
2023-10-29T15:44:33.255Z,99206.37
2023-10-29T15:48:36.893Z,99200.09
2023-10-29T15:52:40.354Z,99197.23
2023-10-29T15:56:45.254Z,99190.98
2023-10-29T16:00:49.101Z,99188.16
2023-10-29T16:04:52.801Z,99190.77
2023-10-29T16:08:56.202Z,99193.20
2023-10-29T16:12:59.516Z,99182.43
2023-10-29T16:17:03.077Z,99181.95
2023-10-29T16:21:06.819Z,99177.05
2023-10-29T16:25:10.381Z,99178.91
2023-10-29T16:29:13.881Z,99169.59
2023-10-29T16:33:17.354Z,99172.13
2023-10-29T16:37:21.928Z,99174.89
2023-10-29T16:41:25.547Z,99176.16
2023-10-29T16:45:29.296Z,99179.45
2023-10-29T16:49:33.416Z,99179.03
2023-10-29T16:53:38.996Z,99182.34
2023-10-29T16:57:42.702Z,99182.92
2023-10-29T17:01:47.217Z,99182.23
2023-10-29T17:05:50.779Z,99177.96
2023-10-29T17:09:56.566Z,99178.84
2023-10-29T17:14:00.164Z,99183.52
2023-10-29T17:18:04.713Z,99189.33
2023-10-29T17:22:08.929Z,99195.15
2023-10-29T17:26:20.182Z,99195.27
2023-10-29T17:30:24.250Z,99192.20
2023-10-29T17:34:27.850Z,99178.73
2023-10-29T17:38:31.484Z,99181.16
2023-10-29T17:42:35.484Z,99178.61
2023-10-29T17:46:39.130Z,99180.64
2023-10-29T17:50:43.903Z,99180.05
2023-10-29T17:54:47.928Z,99174.64
2023-10-29T17:58:52.755Z,99176.85
2023-10-29T18:02:56.540Z,99183.92
2023-10-29T18:07:00.497Z,99189.52
2023-10-29T18:11:04.279Z,99190.17
2023-10-29T18:15:08.196Z,99180.70
2023-10-29T18:19:11.701Z,99171.91
2023-10-29T18:23:15.410Z,99172.80
2023-10-29T18:27:19.199Z,99179.63
2023-10-29T18:31:23.043Z,99178.98
2023-10-29T18:35:27.152Z,99182.36
2023-10-29T18:39:31.021Z,99184.05
2023-10-29T18:43:34.477Z,99179.68
2023-10-29T18:47:38.027Z,99181.54
2023-10-29T18:51:41.771Z,99173.98
2023-10-29T18:55:45.499Z,99177.83
2023-10-29T18:59:49.285Z,99174.95
2023-10-29T19:03:53.157Z,99175.72
2023-10-29T19:07:56.795Z,99171.23
2023-10-29T19:12:00.951Z,99167.03
2023-10-29T19:16:07.775Z,99169.30
2023-10-29T19:20:11.887Z,99171.24
2023-10-29T19:24:17.305Z,99173.38
2023-10-29T19:28:22.388Z,99184.47
2023-10-29T19:32:25.949Z,99185.27
2023-10-29T19:36:29.666Z,99178.74
2023-10-29T19:40:33.755Z,99176.56
2023-10-29T19:44:38.259Z,99184.30
2023-10-29T19:48:41.928Z,99183.44
2023-10-29T19:52:45.685Z,99188.46
2023-10-29T19:56:49.308Z,99187.29
2023-10-29T20:01:05.569Z,99188.55
2023-10-29T20:05:10.855Z,99189.13
2023-10-29T20:09:15.444Z,99184.86
2023-10-29T20:13:19.106Z,99177.08
2023-10-29T20:17:22.724Z,99184.02
2023-10-29T20:21:27.968Z,99187.66
2023-10-29T20:25:31.688Z,99193.41
2023-10-29T20:29:36.283Z,99210.96
2023-10-29T20:33:39.945Z,99218.33
2023-10-29T20:37:43.544Z,99222.23
2023-10-29T20:41:47.078Z,99223.34
2023-10-29T20:45:54.398Z,99225.48
2023-10-29T20:49:57.916Z,99212.27
2023-10-29T20:54:01.426Z,99200.23
2023-10-29T20:58:04.950Z,99193.45
2023-10-29T21:02:09.032Z,99185.60
2023-10-29T21:06:14.761Z,99190.14
2023-10-29T21:10:19.936Z,99200.94
2023-10-29T21:14:23.376Z,99189.39
2023-10-29T21:18:30.203Z,99189.94
2023-10-29T21:22:34.096Z,99190.16
2023-10-29T21:26:37.479Z,99191.27
2023-10-29T21:30:44.280Z,99189.55
2023-10-29T21:34:47.981Z,99180.70
2023-10-29T21:38:51.332Z,99180.02
2023-10-29T21:42:54.707Z,99180.15
2023-10-29T21:46:57.996Z,99186.42
2023-10-29T21:51:02.433Z,99194.04
2023-10-29T21:55:06.191Z,99193.55
2023-10-29T21:59:09.525Z,99191.67
2023-10-29T22:03:12.888Z,99192.27
2023-10-29T22:07:16.493Z,99194.02
2023-10-29T22:11:20.337Z,99194.08
2023-10-29T22:15:27.848Z,99189.96
2023-10-29T22:19:31.293Z,99202.70
2023-10-29T22:23:35.888Z,99200.79
2023-10-29T22:27:39.354Z,99200.00
2023-10-29T22:31:42.662Z,99195.13
2023-10-29T22:35:46.028Z,99196.45
2023-10-29T22:39:49.931Z,99199.20
2023-10-29T22:43:54.902Z,99200.81
2023-10-29T22:47:58.192Z,99201.96
2023-10-29T22:52:01.579Z,99198.79
2023-10-29T22:56:05.269Z,99190.58
2023-10-29T23:00:13.715Z,99190.44
2023-10-29T23:04:19.499Z,99190.19
2023-10-29T23:08:22.935Z,99189.70
2023-10-29T23:12:26.504Z,99185.98
2023-10-29T23:16:30.888Z,99190.26
2023-10-29T23:20:34.210Z,99191.00
2023-10-29T23:24:37.690Z,99187.56
2023-10-29T23:28:41.248Z,99186.27
2023-10-29T23:32:44.604Z,99180.54
2023-10-29T23:36:47.959Z,99183.77
2023-10-29T23:40:51.249Z,99191.66
2023-10-29T23:44:55.968Z,99196.42
2023-10-29T23:48:59.317Z,99206.57
2023-10-29T23:53:02.677Z,99200.13
2023-10-29T23:57:05.935Z,99198.02
